Latest Coastal Weather Observations for Hopetoun North

IDW60701

Issued at 3:12 pm WST Saturday 18 April 2015 (issued every 10 minutes, with the page automatically refreshed every 10 minutes)

About coastal observations | Map of coastal stations | Coastal observations for WA | Marine services | Other Formats
Station Details ID: 009961 Name: HOPETOUN NORTH Lat: -33.93 Lon: 120.13 Height: 26.0 m
Data from the previous 72 hours. | See also: Recent months at Hopetoun North
Date/Time
WST
Temp

°C
Wind Pressure Rain
since 9am
mm
Weather Cloud Vis
km
Sea
Height
m
Swell
Dir
 
Speed
knots
Gust
knots
hPa Trend Height
m
Period
s
Dir
18/03:00pm 16.1 ESE 10 15 1027.0 - 0.2 - - - - - - -
18/02:30pm 16.1 ESE 10 16 1026.9 - 0.2 - - - - - - -
18/02:00pm 16.1 ESE 11 17 1026.8 - 0.2 - - - - - - -
18/01:30pm 16.2 ESE 11 18 1026.7 - 0.2 - - - - - - -
18/01:00pm 16.3 ESE 10 16 1026.8 - 0.2 - - - - - - -
18/12:30pm 17.5 ESE 12 17 1026.9 - 0.2 - - - - - - -
18/12:00pm 17.3 ESE 10 15 1027.2 - 0.2 - - - - - - -
18/11:30am 16.4 ESE 9 17 1027.3 - 0.2 - - - - - - -
18/11:00am 16.7 ESE 10 15 1027.2 - 0.2 - - - - - - -
18/10:30am 15.8 E 8 12 1027.2 - 0.0 - - - - - - -
18/10:00am 16.2 ESE 10 14 1027.0 - 0.0 - - - - - - -
18/09:30am 15.9 SE 12 16 1026.6 - 0.0 - - - - - - -
18/09:00am 15.3 SE 11 15 1026.5 - 1.2 Recent precip. - - - - - -
18/08:30am 15.2 SE 12 17 1026.1 - 0.8 - - - - - - -
18/08:00am 15.4 SE 10 14 1025.6 - 0.8 - - - - - - -
18/07:30am 15.3 SSE 11 17 1025.0 - 0.8 - - - - - - -
18/07:00am 15.9 SSE 11 17 1024.3 - 0.8 - - - - - - -
18/06:30am 14.7 WSW 2 4 1024.1 - 0.6 - - - - - - -
18/06:00am 14.4 WSW 3 6 1023.9 - 0.2 Rain - - - - - -
18/05:30am 13.3 WNW 4 5 1023.7 - 0.0 - - - - - - -
18/05:00am 12.7 NW 4 5 1023.3 - 0.0 - - - - - - -
18/04:30am 12.4 NW 5 6 1022.9 - 0.0 - - - - - - -
18/04:00am 11.9 NNW 4 5 1022.7 - 0.0 - - - - - - -
18/03:30am 12.3 NNW 4 5 1022.5 - 0.0 - - - - - - -
18/03:00am 12.5 NW 5 6 1022.4 - 0.0 - - - - - - -
18/02:30am 13.4 WNW 4 7 1022.5 - 0.0 - - - - - - -
18/02:00am 13.5 NW 6 7 1022.4 - 0.0 - - - - - - -
18/01:30am 13.1 NW 5 6 1022.5 - 0.0 - - - - - - -
18/01:00am 13.3 NW 6 6 1022.4 - 0.0 - - - - - - -
18/12:30am 13.2 NNW 5 5 1022.2 - 0.0 - - - - - - -
18/12:00am 13.4 NW 4 5 1022.2 - 0.0 - - - - - - -
 
Date/Time
WST
Temp

°C
Wind Pressure Rain
since 9am
mm
Weather Cloud Vis
km
Sea
Height
m
Swell
Dir
 
Speed
knots
Gust
knots
hPa Trend Height
m
Period
s
Dir
17/11:30pm 13.7 N 3 4 1022.3 - 0.0 - - - - - - -
17/11:00pm 13.7 NNW 3 4 1022.4 - 0.0 - - - - - - -
17/10:30pm 13.2 NW 2 4 1022.5 - 0.0 - - - - - - -
17/10:00pm 13.7 CALM 0 1 1022.6 - 0.0 - - - - - - -
17/09:30pm 13.7 NE 1 2 1022.5 - 0.0 - - - - - - -
17/09:00pm 14.7 NNW 3 5 1022.5 - 0.0 - - - - - - -
17/08:30pm 15.9 WSW 3 4 1022.3 - 0.0 - - - - - - -
17/08:00pm 16.1 SW 2 3 1022.2 - 0.0 - - - - - - -
17/07:30pm 15.7 SSW 4 7 1022.1 - 0.0 - - - - - - -
17/07:00pm 16.1 S 2 3 1022.1 - 0.0 - - - - - - -
17/06:30pm 16.2 S 4 5 1021.9 - 0.0 - - - - - - -
17/06:00pm 16.7 SSW 6 8 1021.6 - 0.0 - - - - - - -
17/05:30pm 17.5 S 7 9 1021.4 - 0.0 - - - - - - -
17/05:00pm 18.2 S 8 10 1021.3 - 0.0 - - - - - - -
17/04:30pm 18.9 S 8 11 1021.0 - 0.0 - - - - - - -
17/04:00pm 19.0 S 8 11 1021.2 - 0.0 - - - - - - -
17/03:30pm 19.7 S 9 11 1021.1 - 0.0 - - - - - - -
17/03:00pm 19.9 SSE 6 9 1021.0 - 0.0 - - - - - - -
17/02:30pm 19.9 SSE 6 8 1021.2 - 0.0 - - - - - - -
17/02:00pm 18.3 SSE 6 9 1021.3 - 0.0 - - - - - - -
17/01:30pm 17.7 S 7 11 1021.6 - 0.0 - - - - - - -
17/01:00pm 17.7 S 8 11 1021.9 - 0.0 - - - - - - -
17/12:30pm 17.9 S 9 11 1022.8 - 0.0 - - - - - - -
17/12:00pm 17.6 SSW 9 11 1023.6 - 0.0 - - - - - - -
17/11:30am 17.6 SSW 8 10 1024.1 - 0.0 - - - - - - -
17/11:00am 17.4 WSW 8 12 1024.6 - 0.0 - - - - - - -
17/10:30am 17.1 W 7 11 1025.2 - 0.0 - - - - - - -
17/10:00am 17.1 NNW 6 9 1025.5 - 0.0 - - - - - - -
17/09:30am 15.4 NNW 7 12 1025.8 - 0.0 - - - - - - -
17/09:00am 14.4 NNW 6 10 1026.1 - 0.0 - - - - - - -
17/08:30am 13.4 NNW 6 9 1026.4 - 0.0 - - - - - - -
17/08:00am 11.4 NNW 5 8 1026.5 - 0.0 - - - - - - -
17/07:30am 9.9 NNW 5 7 1026.3 - 0.0 - - - - - - -
17/07:00am 8.3 NNW 4 7 1026.2 - 0.0 - - - - - - -
17/06:30am 8.0 N 7 9 1026.2 - 0.0 - - - - - - -
17/06:00am 8.0 N 6 8 1026.3 - 0.0 - - - - - - -
17/05:30am 8.3 NNW 6 8 1026.4 - 0.0 - - - - - - -
17/05:00am 8.4 NNW 6 8 1026.5 - 0.0 - - - - - - -
17/04:30am 8.1 N 3 5 1026.6 - 0.0 - - - - - - -
17/04:00am 8.4 N 3 5 1026.5 - 0.0 - - - - - - -
17/03:30am 8.3 N 3 4 1026.6 - 0.0 - - - - - - -
17/03:00am 8.5 N 4 5 1026.7 - 0.0 - - - - - - -
17/02:30am 8.8 N 4 5 1026.9 - 0.0 - - - - - - -
17/02:00am 9.0 N 3 5 1027.0 - 0.0 - - - - - - -
17/01:30am 8.9 N 4 5 1027.4 - 0.0 - - - - - - -
17/01:00am 8.8 N 3 4 1027.5 - 0.0 - - - - - - -
17/12:30am 8.9 N 4 5 1027.7 - 0.0 - - - - - - -
17/12:00am 8.3 N 3 4 1027.9 - 0.0 - - - - - - -
 
Date/Time
WST
Temp

°C
Wind Pressure Rain
since 9am
mm
Weather Cloud Vis
km
Sea
Height
m
Swell
Dir
 
Speed
knots
Gust
knots
hPa Trend Height
m
Period
s
Dir
16/11:30pm 7.9 N 4 5 1028.1 - 0.0 - - - - - - -
16/11:00pm 7.8 N 4 4 1028.4 - 0.0 - - - - - - -
16/10:30pm 8.0 NNE 4 5 1028.7 - 0.0 - - - - - - -
16/10:00pm 10.2 CALM 0 1 1029.0 - 0.0 - - - - - - -
16/09:30pm 11.0 N 2 3 1028.9 - 0.0 - - - - - - -
16/09:00pm 13.1 ENE 3 3 1028.9 - 0.0 - - - - - - -
16/08:30pm 11.9 NE 3 3 1028.8 - 0.0 - - - - - - -
16/08:00pm 12.8 NE 3 4 1028.7 - 0.0 - - - - - - -
16/07:30pm 15.0 ESE 4 5 1028.8 - 0.0 - - - - - - -
16/07:00pm 15.1 SE 4 5 1029.1 - 0.0 - - - - - - -
16/06:30pm 15.5 E 3 4 1029.0 - 0.0 - - - - - - -
16/06:00pm 15.4 SE 4 5 1029.1 - 0.0 - - - - - - -
16/05:30pm 16.4 SE 3 3 1029.1 - 0.0 - - - - - - -
16/05:00pm 17.6 SSE 3 4 1029.2 - 0.0 - - - - - - -
16/04:30pm 17.3 SSE 3 4 1029.2 - 0.0 - - - - - - -
16/04:00pm 18.1 SSE 5 7 1029.2 - 0.0 - - - - - - -
16/03:30pm 18.8 S 5 9 1029.4 - 0.0 - - - - - - -
16/03:00pm 19.0 SW 6 8 1029.4 - 0.0 - - - - - - -
16/02:30pm 18.1 SW 7 10 1029.5 - 0.0 - - - - - - -
16/02:00pm 19.0 SW 7 13 1029.6 - 0.0 - - - - - - -
16/01:30pm 19.7 SW 7 12 1030.0 - 0.0 - - - - - - -
16/01:00pm 17.7 SW 6 10 1030.0 - 0.0 - - - - - - -
16/12:30pm 19.6 SW 4 7 1030.1 - 0.0 - - - - - - -
16/12:00pm 18.4 W 5 8 1030.6 - 0.0 - - - - - - -
16/11:30am 17.6 W 4 6 1031.2 - 0.0 - - - - - - -
16/11:00am 18.0 SSW 5 6 1031.3 - 0.0 - - - - - - -
16/10:30am 17.9 SW 5 6 1031.3 - 0.0 - - - - - - -
16/10:00am 17.5 CALM 0 2 1031.6 - 0.0 - - - - - - -
16/09:30am 16.8 NNE 2 4 1031.8 - 0.0 - - - - - - -
16/09:00am 15.5 N 2 3 1031.6 - 0.2 - - - - - - -
16/08:30am 14.5 N 2 3 1031.7 - 0.2 - - - - - - -
16/08:00am 13.3 NNW 3 4 1031.4 - 0.2 - - - - - - -
16/07:30am 9.6 NNW 3 5 1031.0 - 0.2 - - - - - - -
16/07:00am 8.0 NW 2 3 1030.7 - 0.2 - - - - - - -
16/06:30am 7.6 N 3 4 1030.1 - 0.2 - - - - - - -
16/06:00am 7.7 NNW 3 3 1029.9 - 0.2 - - - - - - -
16/05:30am 8.7 NNE 3 3 1029.8 - 0.2 - - - - - - -
16/05:00am 10.5 NE 4 4 1029.7 - 0.2 - - - - - - -
16/04:30am 10.6 NNE 3 3 1029.4 - 0.2 - - - - - - -
16/04:00am 11.8 NE 3 4 1029.6 - 0.2 - - - - - - -
16/03:30am 12.9 ENE 3 5 1029.3 - 0.2 - - - - - - -
16/03:00am 15.0 SE 5 6 1029.5 - 0.2 - - - - - - -
16/02:30am 15.3 SSE 6 10 1029.5 - 0.2 - - - - - - -
16/02:00am 15.2 SE 5 8 1029.6 - 0.2 - - - - - - -
16/01:30am 15.2 SE 5 8 1029.8 - 0.2 - - - - - - -
16/01:00am 15.7 SSE 6 10 1030.0 - 0.2 - - - - - - -
16/12:30am 16.0 SSE 7 10 1029.9 - 0.2 - - - - - - -
16/12:00am 15.4 SSE 5 7 1029.8 - 0.2 - - - - - - -
 
Date/Time
WST
Temp

°C
Wind Pressure Rain
since 9am
mm
Weather Cloud Vis
km
Sea
Height
m
Swell
Dir
 
Speed
knots
Gust
knots
hPa Trend Height
m
Period
s
Dir
15/11:30pm 15.4 S 7 10 1029.8 - 0.2 - - - - - - -
15/11:00pm 14.6 S 5 7 1030.2 - 0.2 - - - - - - -
15/10:30pm 15.0 SSE 6 8 1030.1 - 0.2 - - - - - - -
15/10:00pm 13.1 SSE 5 7 1030.2 - 0.2 - - - - - - -
15/09:30pm 13.3 SSE 6 9 1030.3 - 0.2 - - - - - - -
15/09:00pm 13.1 SSE 4 7 1030.2 - 0.2 - - - - - - -
15/08:30pm 13.9 SSE 6 9 1030.0 - 0.2 - - - - - - -
15/08:00pm 14.3 SSE 8 12 1029.6 - 0.2 - - - - - - -
15/07:30pm 14.3 SSE 7 11 1029.5 - 0.2 - - - - - - -
15/07:00pm 14.1 SSE 6 9 1029.2 - 0.2 - - - - - - -
15/06:30pm 13.8 SE 6 10 1028.7 - 0.2 - - - - - - -
15/06:00pm 14.0 SSE 6 9 1028.2 - 0.2 - - - - - - -
15/05:30pm 14.3 SSE 7 11 1027.8 - 0.2 - - - - - - -
15/05:00pm 14.5 S 8 11 1027.5 - 0.2 - - - - - - -
15/04:30pm 15.2 S 8 13 1026.9 - 0.2 - - - - - - -
15/04:00pm 15.3 S 10 13 1026.6 - 0.2 - - - - - - -
15/03:30pm 15.9 S 9 13 1026.3 - 0.2 - - - - - - -

Other Formats:

Comma delimited format used in spreadsheet applications
http://www.bom.gov.au/fwo/IDW60701/IDW60701.95635.axf

JavaScript Object Notation format (JSON) in row-major order
http://www.bom.gov.au/fwo/IDW60701/IDW60701.95635.json